KGTG/GTG METAR and TAF weather

Enter ICAO airport designator
Station Type Date Time Source
KGTG METAR 2017/12/05 03:56 UTC NOAA

KGTG 050356Z AUTO 16016G23KT 10SM CLR 07/00 A3005 RMK AO2 PK WND 18026/49 SLP181 T00681004 CHINO RWY03 $


Station Type Date Time Source
KGTG Decoded METAR 2017/12/05 03:56 UTC NOAA

Station name not available
Dec 04, 2017 - 10:56 PM EST / 2017.12.05 0356 UTC
Wind: from the SSE (160 degrees) at 18 MPH (16 KT) gusting to 26 MPH (23 KT):0
Visibility: 10 mile(s):0
Sky conditions: clear
Temperature: 44.2 F (6.8 C)
Dew Point: 31.3 F (-0.4 C)
Relative Humidity: 60%
Pressure (altimeter): 30.05 in. Hg (1017 hPa)
ob: KGTG 050356Z AUTO 16016G23KT 10SM CLR 07/00 A3005 RMK AO2 PK WND 18026/49 SLP181 T00681004 CHINO RWY03
cycle: 4

Station Type Date Time Source
KGTG TAF UTC NOAA

Error!


Example: see airport list